Terminal Aerodrome Forecast
Issued by NWS

Home | Current Version | Previous Version | Text Only | Print | Product List | Glossary On
Versions: 1 2 3 4 5 6 7 8 9 10 11 12 13 14 15 16 17 18 19
000
FTUS43 KLSX 281734 AAA
TAFUIN
TAF AMD
KUIN 281734Z 2818/2918 19018G28KT P6SM FEW040 BKN120
     FM290000 20013KT P6SM SCT100 BKN250
     FM290900 20013KT P6SM VCTS SCT040CB BKN100
     FM291500 21013KT P6SM FEW030 BKN080=

USA.gov is the U.S. government's official web portal to all federal, state and local government web resources and services.